sensor_id;sensor_type;location;lat;lon;timestamp;P1;durP1;ratioP1;P2;durP2;ratioP2
41627;SDS011;27321;50.816;6.054;2024-01-06T00:01:04;4.10;;;3.70;;
41627;SDS011;27321;50.816;6.054;2024-01-06T00:04:23;3.83;;;3.30;;
41627;SDS011;27321;50.816;6.054;2024-01-06T00:07:30;4.03;;;3.30;;
41627;SDS011;27321;50.816;6.054;2024-01-06T00:10:45;5.10;;;3.90;;
41627;SDS011;27321;50.816;6.054;2024-01-06T00:13:56;5.03;;;4.37;;
41627;SDS011;27321;50.816;6.054;2024-01-06T00:17:08;6.93;;;4.45;;
41627;SDS011;27321;50.816;6.054;2024-01-06T00:20:29;4.43;;;3.88;;
41627;SDS011;27321;50.816;6.054;2024-01-06T00:23:30;5.00;;;4.00;;
41627;SDS011;27321;50.816;6.054;2024-01-06T00:26:31;5.82;;;4.15;;
41627;SDS011;27321;50.816;6.054;2024-01-06T00:29:32;6.37;;;4.63;;
41627;SDS011;27321;50.816;6.054;2024-01-06T00:32:33;4.50;;;4.00;;
41627;SDS011;27321;50.816;6.054;2024-01-06T00:35:34;6.30;;;5.23;;
41627;SDS011;27321;50.816;6.054;2024-01-06T00:38:35;7.67;;;5.80;;
41627;SDS011;27321;50.816;6.054;2024-01-06T00:41:36;6.93;;;5.50;;
41627;SDS011;27321;50.816;6.054;2024-01-06T00:44:37;6.47;;;5.50;;
41627;SDS011;27321;50.816;6.054;2024-01-06T00:47:38;6.83;;;5.70;;
41627;SDS011;27321;50.816;6.054;2024-01-06T00:50:39;9.63;;;6.30;;
41627;SDS011;27321;50.816;6.054;2024-01-06T00:53:40;6.80;;;5.63;;
41627;SDS011;27321;50.816;6.054;2024-01-06T00:56:41;5.80;;;4.67;;
41627;SDS011;27321;50.816;6.054;2024-01-06T00:59:43;5.80;;;5.10;;
41627;SDS011;27321;50.816;6.054;2024-01-06T01:02:44;7.37;;;4.90;;
41627;SDS011;27321;50.816;6.054;2024-01-06T01:05:45;5.40;;;4.43;;
41627;SDS011;27321;50.816;6.054;2024-01-06T01:08:46;5.27;;;4.37;;
41627;SDS011;27321;50.816;6.054;2024-01-06T01:11:47;8.63;;;6.15;;
41627;SDS011;27321;50.816;6.054;2024-01-06T01:14:48;8.87;;;5.73;;
41627;SDS011;27321;50.816;6.054;2024-01-06T01:17:49;7.45;;;5.68;;
41627;SDS011;27321;50.816;6.054;2024-01-06T01:20:50;8.30;;;5.27;;
41627;SDS011;27321;50.816;6.054;2024-01-06T02:46:29;4.97;;;3.73;;
41627;SDS011;27321;50.816;6.054;2024-01-06T03:27:33;5.57;;;3.37;;
41627;SDS011;27321;50.816;6.054;2024-01-06T07:55:24;13.57;;;7.93;;
41627;SDS011;27321;50.816;6.054;2024-01-06T08:56:25;7.93;;;4.77;;
41627;SDS011;27321;50.816;6.054;2024-01-06T09:19:36;6.90;;;5.30;;
41627;SDS011;27321;50.816;6.054;2024-01-06T09:29:05;9.67;;;5.43;;
41627;SDS011;27321;50.816;6.054;2024-01-06T09:31:48;6.83;;;5.30;;
41627;SDS011;27321;50.816;6.054;2024-01-06T09:40:12;7.87;;;4.93;;
41627;SDS011;27321;50.816;6.054;2024-01-06T09:59:26;8.67;;;5.23;;
41627;SDS011;27321;50.816;6.054;2024-01-06T10:02:30;6.63;;;4.80;;
41627;SDS011;27321;50.816;6.054;2024-01-06T10:05:31;7.40;;;4.57;;
41627;SDS011;27321;50.816;6.054;2024-01-06T10:08:32;6.60;;;4.67;;
41627;SDS011;27321;50.816;6.054;2024-01-06T10:11:35;6.53;;;4.77;;
41627;SDS011;27321;50.816;6.054;2024-01-06T10:14:37;7.95;;;5.38;;
41627;SDS011;27321;50.816;6.054;2024-01-06T10:17:39;6.80;;;4.53;;
41627;SDS011;27321;50.816;6.054;2024-01-06T10:20:41;6.60;;;4.20;;
41627;SDS011;27321;50.816;6.054;2024-01-06T10:23:44;5.33;;;3.70;;
41627;SDS011;27321;50.816;6.054;2024-01-06T10:26:46;6.97;;;4.72;;
41627;SDS011;27321;50.816;6.054;2024-01-06T10:29:47;6.63;;;4.20;;
41627;SDS011;27321;50.816;6.054;2024-01-06T10:32:48;5.77;;;4.47;;
41627;SDS011;27321;50.816;6.054;2024-01-06T10:35:50;5.77;;;4.27;;
41627;SDS011;27321;50.816;6.054;2024-01-06T10:38:52;6.10;;;4.20;;
41627;SDS011;27321;50.816;6.054;2024-01-06T10:41:53;7.13;;;4.90;;
41627;SDS011;27321;50.816;6.054;2024-01-06T10:44:55;6.20;;;4.23;;
41627;SDS011;27321;50.816;6.054;2024-01-06T10:47:57;6.32;;;3.92;;
41627;SDS011;27321;50.816;6.054;2024-01-06T10:50:59;5.57;;;3.70;;
41627;SDS011;27321;50.816;6.054;2024-01-06T10:54:07;7.60;;;4.67;;
41627;SDS011;27321;50.816;6.054;2024-01-06T10:57:10;5.40;;;4.13;;
41627;SDS011;27321;50.816;6.054;2024-01-06T11:00:11;5.43;;;3.45;;
41627;SDS011;27321;50.816;6.054;2024-01-06T11:03:13;4.47;;;3.07;;
41627;SDS011;27321;50.816;6.054;2024-01-06T11:06:15;5.95;;;4.10;;
41627;SDS011;27321;50.816;6.054;2024-01-06T11:09:27;5.73;;;4.07;;
41627;SDS011;27321;50.816;6.054;2024-01-06T11:12:33;6.53;;;4.43;;
41627;SDS011;27321;50.816;6.054;2024-01-06T11:19:00;4.40;;;3.10;;
41627;SDS011;27321;50.816;6.054;2024-01-06T11:25:31;6.33;;;3.67;;
41627;SDS011;27321;50.816;6.054;2024-01-06T11:28:48;7.47;;;4.50;;
41627;SDS011;27321;50.816;6.054;2024-01-06T11:35:36;5.82;;;4.03;;
41627;SDS011;27321;50.816;6.054;2024-01-06T11:38:38;5.07;;;3.33;;
41627;SDS011;27321;50.816;6.054;2024-01-06T11:41:50;5.80;;;3.40;;
41627;SDS011;27321;50.816;6.054;2024-01-06T11:44:52;5.07;;;3.53;;
41627;SDS011;27321;50.816;6.054;2024-01-06T11:47:57;4.70;;;3.43;;
41627;SDS011;27321;50.816;6.054;2024-01-06T11:51:03;6.37;;;3.63;;
41627;SDS011;27321;50.816;6.054;2024-01-06T11:54:05;5.72;;;4.07;;
41627;SDS011;27321;50.816;6.054;2024-01-06T11:57:06;6.15;;;3.25;;
41627;SDS011;27321;50.816;6.054;2024-01-06T12:00:08;6.07;;;4.13;;
41627;SDS011;27321;50.816;6.054;2024-01-06T12:03:09;4.47;;;3.40;;
41627;SDS011;27321;50.816;6.054;2024-01-06T12:06:12;4.90;;;3.67;;
41627;SDS011;27321;50.816;6.054;2024-01-06T12:09:13;5.20;;;3.37;;
41627;SDS011;27321;50.816;6.054;2024-01-06T12:12:19;5.27;;;3.80;;
41627;SDS011;27321;50.816;6.054;2024-01-06T12:18:51;4.20;;;3.20;;
41627;SDS011;27321;50.816;6.054;2024-01-06T12:21:52;5.88;;;3.53;;
41627;SDS011;27321;50.816;6.054;2024-01-06T12:24:53;4.22;;;3.33;;
41627;SDS011;27321;50.816;6.054;2024-01-06T12:27:55;6.55;;;4.03;;
41627;SDS011;27321;50.816;6.054;2024-01-06T12:30:56;6.15;;;3.65;;
41627;SDS011;27321;50.816;6.054;2024-01-06T12:33:57;6.70;;;4.35;;
41627;SDS011;27321;50.816;6.054;2024-01-06T12:37:02;6.13;;;3.90;;
41627;SDS011;27321;50.816;6.054;2024-01-06T12:40:13;5.03;;;3.70;;
41627;SDS011;27321;50.816;6.054;2024-01-06T12:43:29;5.10;;;3.77;;
41627;SDS011;27321;50.816;6.054;2024-01-06T12:46:47;7.53;;;4.03;;
41627;SDS011;27321;50.816;6.054;2024-01-06T12:50:02;5.97;;;3.87;;
41627;SDS011;27321;50.816;6.054;2024-01-06T12:53:41;7.57;;;4.80;;
41627;SDS011;27321;50.816;6.054;2024-01-06T12:56:51;7.20;;;4.90;;
41627;SDS011;27321;50.816;6.054;2024-01-06T12:59:58;8.30;;;5.17;;
41627;SDS011;27321;50.816;6.054;2024-01-06T13:03:33;8.20;;;5.10;;
41627;SDS011;27321;50.816;6.054;2024-01-06T13:06:48;8.47;;;5.93;;
41627;SDS011;27321;50.816;6.054;2024-01-06T13:34:20;11.20;;;6.07;;
41627;SDS011;27321;50.816;6.054;2024-01-06T13:37:39;9.27;;;6.00;;
41627;SDS011;27321;50.816;6.054;2024-01-06T13:45:23;7.87;;;5.13;;
41627;SDS011;27321;50.816;6.054;2024-01-06T13:48:24;7.65;;;5.25;;
41627;SDS011;27321;50.816;6.054;2024-01-06T13:51:25;7.87;;;5.57;;
41627;SDS011;27321;50.816;6.054;2024-01-06T13:54:25;9.83;;;6.20;;
41627;SDS011;27321;50.816;6.054;2024-01-06T13:57:26;10.43;;;6.53;;
41627;SDS011;27321;50.816;6.054;2024-01-06T14:00:27;11.53;;;6.70;;
41627;SDS011;27321;50.816;6.054;2024-01-06T14:03:28;12.73;;;7.88;;
41627;SDS011;27321;50.816;6.054;2024-01-06T14:06:32;9.60;;;7.10;;
41627;SDS011;27321;50.816;6.054;2024-01-06T14:09:34;10.93;;;7.57;;
41627;SDS011;27321;50.816;6.054;2024-01-06T14:12:35;14.95;;;8.93;;
41627;SDS011;27321;50.816;6.054;2024-01-06T14:15:36;13.70;;;7.90;;
41627;SDS011;27321;50.816;6.054;2024-01-06T14:18:37;13.73;;;7.80;;
41627;SDS011;27321;50.816;6.054;2024-01-06T14:21:38;11.20;;;7.23;;
41627;SDS011;27321;50.816;6.054;2024-01-06T14:24:39;12.45;;;8.02;;
41627;SDS011;27321;50.816;6.054;2024-01-06T14:27:43;14.27;;;8.20;;
41627;SDS011;27321;50.816;6.054;2024-01-06T14:30:48;13.57;;;7.70;;
41627;SDS011;27321;50.816;6.054;2024-01-06T14:33:49;13.98;;;8.68;;
41627;SDS011;27321;50.816;6.054;2024-01-06T14:36:50;11.63;;;8.47;;
41627;SDS011;27321;50.816;6.054;2024-01-06T14:39:51;12.37;;;8.33;;
41627;SDS011;27321;50.816;6.054;2024-01-06T14:42:52;13.02;;;8.25;;
41627;SDS011;27321;50.816;6.054;2024-01-06T14:45:53;12.53;;;8.27;;
41627;SDS011;27321;50.816;6.054;2024-01-06T14:48:54;14.15;;;7.70;;
41627;SDS011;27321;50.816;6.054;2024-01-06T14:51:55;12.93;;;7.80;;
41627;SDS011;27321;50.816;6.054;2024-01-06T14:54:56;12.67;;;8.07;;
41627;SDS011;27321;50.816;6.054;2024-01-06T14:57:57;15.30;;;7.70;;
41627;SDS011;27321;50.816;6.054;2024-01-06T15:00:58;12.73;;;7.40;;
41627;SDS011;27321;50.816;6.054;2024-01-06T15:03:59;10.98;;;7.45;;
41627;SDS011;27321;50.816;6.054;2024-01-06T15:07:03;12.40;;;8.00;;
41627;SDS011;27321;50.816;6.054;2024-01-06T15:10:04;12.10;;;7.97;;
41627;SDS011;27321;50.816;6.054;2024-01-06T15:13:06;14.45;;;8.57;;
41627;SDS011;27321;50.816;6.054;2024-01-06T15:16:07;14.80;;;8.85;;
41627;SDS011;27321;50.816;6.054;2024-01-06T15:19:08;13.23;;;8.93;;
41627;SDS011;27321;50.816;6.054;2024-01-06T15:22:09;12.10;;;8.37;;
41627;SDS011;27321;50.816;6.054;2024-01-06T15:25:13;13.40;;;8.47;;
41627;SDS011;27321;50.816;6.054;2024-01-06T15:28:14;12.15;;;8.60;;
41627;SDS011;27321;50.816;6.054;2024-01-06T15:31:15;13.15;;;8.40;;
41627;SDS011;27321;50.816;6.054;2024-01-06T15:34:19;12.10;;;8.17;;
41627;SDS011;27321;50.816;6.054;2024-01-06T15:37:20;11.35;;;8.32;;
41627;SDS011;27321;50.816;6.054;2024-01-06T15:40:24;12.53;;;7.27;;
41627;SDS011;27321;50.816;6.054;2024-01-06T15:43:25;14.98;;;8.32;;
41627;SDS011;27321;50.816;6.054;2024-01-06T15:46:27;13.30;;;7.85;;
41627;SDS011;27321;50.816;6.054;2024-01-06T15:49:28;10.83;;;7.47;;
41627;SDS011;27321;50.816;6.054;2024-01-06T15:52:29;11.93;;;6.93;;
41627;SDS011;27321;50.816;6.054;2024-01-06T15:55:30;12.48;;;7.50;;
41627;SDS011;27321;50.816;6.054;2024-01-06T15:58:31;11.20;;;7.87;;
41627;SDS011;27321;50.816;6.054;2024-01-06T16:01:32;12.50;;;7.03;;
41627;SDS011;27321;50.816;6.054;2024-01-06T16:04:33;11.23;;;7.33;;
41627;SDS011;27321;50.816;6.054;2024-01-06T16:07:34;12.00;;;8.50;;
41627;SDS011;27321;50.816;6.054;2024-01-06T16:10:36;11.05;;;7.28;;
41627;SDS011;27321;50.816;6.054;2024-01-06T16:13:38;14.23;;;9.23;;
41627;SDS011;27321;50.816;6.054;2024-01-06T16:16:39;13.37;;;9.20;;
41627;SDS011;27321;50.816;6.054;2024-01-06T16:19:40;13.30;;;9.20;;
41627;SDS011;27321;50.816;6.054;2024-01-06T16:22:44;12.77;;;9.30;;
41627;SDS011;27321;50.816;6.054;2024-01-06T16:25:46;15.00;;;9.50;;
41627;SDS011;27321;50.816;6.054;2024-01-06T16:28:47;13.87;;;8.07;;
41627;SDS011;27321;50.816;6.054;2024-01-06T16:31:48;13.00;;;9.05;;
41627;SDS011;27321;50.816;6.054;2024-01-06T16:34:49;15.57;;;9.43;;
41627;SDS011;27321;50.816;6.054;2024-01-06T16:37:50;16.03;;;8.90;;
41627;SDS011;27321;50.816;6.054;2024-01-06T16:40:54;15.73;;;9.33;;
41627;SDS011;27321;50.816;6.054;2024-01-06T16:43:55;15.05;;;9.85;;
41627;SDS011;27321;50.816;6.054;2024-01-06T16:46:56;14.33;;;9.30;;
41627;SDS011;27321;50.816;6.054;2024-01-06T16:49:58;18.37;;;10.37;;
41627;SDS011;27321;50.816;6.054;2024-01-06T16:52:59;15.53;;;9.97;;
41627;SDS011;27321;50.816;6.054;2024-01-06T16:56:03;12.33;;;8.97;;
41627;SDS011;27321;50.816;6.054;2024-01-06T16:59:04;15.05;;;10.02;;
41627;SDS011;27321;50.816;6.054;2024-01-06T17:02:05;19.80;;;10.90;;
41627;SDS011;27321;50.816;6.054;2024-01-06T17:05:07;17.83;;;9.82;;
41627;SDS011;27321;50.816;6.054;2024-01-06T17:08:08;17.27;;;10.18;;
41627;SDS011;27321;50.816;6.054;2024-01-06T17:11:09;17.70;;;10.87;;
41627;SDS011;27321;50.816;6.054;2024-01-06T17:14:10;19.87;;;11.17;;
41627;SDS011;27321;50.816;6.054;2024-01-06T17:17:12;16.38;;;10.25;;
41627;SDS011;27321;50.816;6.054;2024-01-06T17:20:13;17.10;;;10.40;;
41627;SDS011;27321;50.816;6.054;2024-01-06T17:23:14;16.77;;;10.32;;
41627;SDS011;27321;50.816;6.054;2024-01-06T17:26:15;16.23;;;10.60;;
41627;SDS011;27321;50.816;6.054;2024-01-06T17:29:16;18.40;;;10.90;;
41627;SDS011;27321;50.816;6.054;2024-01-06T17:32:17;18.33;;;11.20;;
41627;SDS011;27321;50.816;6.054;2024-01-06T17:35:18;19.10;;;12.10;;
41627;SDS011;27321;50.816;6.054;2024-01-06T17:38:19;19.15;;;12.10;;
41627;SDS011;27321;50.816;6.054;2024-01-06T17:41:21;17.92;;;11.05;;
41627;SDS011;27321;50.816;6.054;2024-01-06T17:44:22;20.80;;;12.50;;
41627;SDS011;27321;50.816;6.054;2024-01-06T17:47:23;18.75;;;11.32;;
41627;SDS011;27321;50.816;6.054;2024-01-06T17:50:24;17.93;;;11.67;;
41627;SDS011;27321;50.816;6.054;2024-01-06T17:53:26;18.13;;;11.47;;
41627;SDS011;27321;50.816;6.054;2024-01-06T17:56:27;18.33;;;10.93;;
41627;SDS011;27321;50.816;6.054;2024-01-06T17:59:29;19.10;;;11.75;;
41627;SDS011;27321;50.816;6.054;2024-01-06T18:02:31;17.60;;;10.77;;
41627;SDS011;27321;50.816;6.054;2024-01-06T18:05:32;18.42;;;11.98;;
41627;SDS011;27321;50.816;6.054;2024-01-06T18:08:36;21.83;;;12.43;;
41627;SDS011;27321;50.816;6.054;2024-01-06T18:11:37;20.43;;;11.63;;
41627;SDS011;27321;50.816;6.054;2024-01-06T18:14:38;18.88;;;12.07;;
41627;SDS011;27321;50.816;6.054;2024-01-06T18:17:42;23.67;;;12.13;;
41627;SDS011;27321;50.816;6.054;2024-01-06T18:20:43;23.13;;;12.90;;
41627;SDS011;27321;50.816;6.054;2024-01-06T18:23:44;22.20;;;12.75;;
41627;SDS011;27321;50.816;6.054;2024-01-06T18:26:45;20.13;;;12.48;;
41627;SDS011;27321;50.816;6.054;2024-01-06T18:29:47;23.10;;;13.15;;
41627;SDS011;27321;50.816;6.054;2024-01-06T18:32:48;25.77;;;13.60;;
41627;SDS011;27321;50.816;6.054;2024-01-06T18:35:50;29.53;;;15.07;;
41627;SDS011;27321;50.816;6.054;2024-01-06T18:38:51;44.70;;;19.90;;
41627;SDS011;27321;50.816;6.054;2024-01-06T18:41:53;26.27;;;15.35;;
41627;SDS011;27321;50.816;6.054;2024-01-06T18:44:55;32.37;;;17.40;;
41627;SDS011;27321;50.816;6.054;2024-01-06T18:47:56;25.87;;;14.40;;
41627;SDS011;27321;50.816;6.054;2024-01-06T18:50:57;21.58;;;13.18;;
41627;SDS011;27321;50.816;6.054;2024-01-06T18:54:06;19.30;;;12.23;;
41627;SDS011;27321;50.816;6.054;2024-01-06T18:57:11;18.40;;;10.73;;
41627;SDS011;27321;50.816;6.054;2024-01-06T19:00:14;18.23;;;11.23;;
41627;SDS011;27321;50.816;6.054;2024-01-06T19:03:18;17.50;;;11.57;;
41627;SDS011;27321;50.816;6.054;2024-01-06T19:06:19;19.20;;;11.80;;
41627;SDS011;27321;50.816;6.054;2024-01-06T19:09:21;19.45;;;11.77;;
41627;SDS011;27321;50.816;6.054;2024-01-06T19:12:22;19.40;;;11.13;;
41627;SDS011;27321;50.816;6.054;2024-01-06T19:15:24;19.13;;;12.52;;
41627;SDS011;27321;50.816;6.054;2024-01-06T19:18:25;18.30;;;11.37;;
41627;SDS011;27321;50.816;6.054;2024-01-06T19:21:26;19.05;;;11.90;;
41627;SDS011;27321;50.816;6.054;2024-01-06T19:24:27;20.57;;;11.67;;
41627;SDS011;27321;50.816;6.054;2024-01-06T19:27:28;21.13;;;13.13;;
41627;SDS011;27321;50.816;6.054;2024-01-06T19:30:32;19.47;;;11.90;;
41627;SDS011;27321;50.816;6.054;2024-01-06T19:33:37;21.65;;;12.90;;
41627;SDS011;27321;50.816;6.054;2024-01-06T19:36:38;22.03;;;12.87;;
41627;SDS011;27321;50.816;6.054;2024-01-06T19:39:39;22.77;;;13.83;;
41627;SDS011;27321;50.816;6.054;2024-01-06T19:42:40;22.20;;;12.90;;
41627;SDS011;27321;50.816;6.054;2024-01-06T19:45:43;22.03;;;12.93;;
41627;SDS011;27321;50.816;6.054;2024-01-06T19:48:44;19.55;;;12.57;;
41627;SDS011;27321;50.816;6.054;2024-01-06T19:51:48;20.93;;;12.60;;
41627;SDS011;27321;50.816;6.054;2024-01-06T19:57:51;24.87;;;13.10;;
41627;SDS011;27321;50.816;6.054;2024-01-06T20:00:52;23.02;;;13.48;;
41627;SDS011;27321;50.816;6.054;2024-01-06T20:03:54;21.07;;;12.67;;
41627;SDS011;27321;50.816;6.054;2024-01-06T20:06:55;21.27;;;12.07;;
41627;SDS011;27321;50.816;6.054;2024-01-06T20:09:56;22.03;;;12.27;;
41627;SDS011;27321;50.816;6.054;2024-01-06T20:12:57;22.07;;;12.60;;
41627;SDS011;27321;50.816;6.054;2024-01-06T20:16:02;21.58;;;13.38;;
41627;SDS011;27321;50.816;6.054;2024-01-06T20:19:08;22.17;;;12.87;;
41627;SDS011;27321;50.816;6.054;2024-01-06T20:22:09;21.60;;;12.60;;
41627;SDS011;27321;50.816;6.054;2024-01-06T20:25:10;21.83;;;11.68;;
41627;SDS011;27321;50.816;6.054;2024-01-06T20:28:12;18.88;;;11.45;;
41627;SDS011;27321;50.816;6.054;2024-01-06T20:31:13;20.60;;;11.40;;
41627;SDS011;27321;50.816;6.054;2024-01-06T20:34:15;18.23;;;10.37;;
41627;SDS011;27321;50.816;6.054;2024-01-06T20:37:16;20.48;;;10.23;;
41627;SDS011;27321;50.816;6.054;2024-01-06T20:40:17;16.63;;;10.43;;
41627;SDS011;27321;50.816;6.054;2024-01-06T20:43:18;17.17;;;10.10;;
41627;SDS011;27321;50.816;6.054;2024-01-06T20:46:19;20.37;;;11.80;;
41627;SDS011;27321;50.816;6.054;2024-01-06T20:49:22;20.17;;;11.80;;
41627;SDS011;27321;50.816;6.054;2024-01-06T20:52:24;19.90;;;11.83;;
41627;SDS011;27321;50.816;6.054;2024-01-06T20:55:26;20.92;;;11.43;;
41627;SDS011;27321;50.816;6.054;2024-01-06T20:58:27;18.23;;;10.73;;
41627;SDS011;27321;50.816;6.054;2024-01-06T21:01:28;18.45;;;11.30;;
41627;SDS011;27321;50.816;6.054;2024-01-06T21:04:32;20.13;;;11.23;;
41627;SDS011;27321;50.816;6.054;2024-01-06T21:07:33;18.83;;;10.87;;
41627;SDS011;27321;50.816;6.054;2024-01-06T21:10:35;20.43;;;12.60;;
41627;SDS011;27321;50.816;6.054;2024-01-06T21:13:39;23.03;;;12.37;;
41627;SDS011;27321;50.816;6.054;2024-01-06T21:16:40;19.77;;;11.70;;
41627;SDS011;27321;50.816;6.054;2024-01-06T21:19:41;19.37;;;11.87;;
41627;SDS011;27321;50.816;6.054;2024-01-06T21:22:42;19.30;;;11.60;;
41627;SDS011;27321;50.816;6.054;2024-01-06T21:25:43;19.88;;;11.43;;
41627;SDS011;27321;50.816;6.054;2024-01-06T21:28:44;18.33;;;10.77;;
41627;SDS011;27321;50.816;6.054;2024-01-06T21:31:48;18.13;;;10.57;;
41627;SDS011;27321;50.816;6.054;2024-01-06T21:34:49;20.47;;;12.03;;
41627;SDS011;27321;50.816;6.054;2024-01-06T21:37:53;19.03;;;10.60;;
41627;SDS011;27321;50.816;6.054;2024-01-06T21:40:54;16.47;;;9.50;;
41627;SDS011;27321;50.816;6.054;2024-01-06T21:43:55;16.70;;;10.38;;
41627;SDS011;27321;50.816;6.054;2024-01-06T21:46:56;16.03;;;9.53;;
41627;SDS011;27321;50.816;6.054;2024-01-06T21:49:57;15.97;;;10.33;;
41627;SDS011;27321;50.816;6.054;2024-01-06T21:52:58;19.08;;;11.15;;
41627;SDS011;27321;50.816;6.054;2024-01-06T21:55:59;15.88;;;9.98;;
41627;SDS011;27321;50.816;6.054;2024-01-06T21:59:05;17.57;;;10.93;;
41627;SDS011;27321;50.816;6.054;2024-01-06T22:02:07;17.20;;;10.80;;
41627;SDS011;27321;50.816;6.054;2024-01-06T22:05:08;15.93;;;10.13;;
41627;SDS011;27321;50.816;6.054;2024-01-06T22:08:09;14.93;;;9.77;;
41627;SDS011;27321;50.816;6.054;2024-01-06T22:11:10;16.13;;;9.73;;
41627;SDS011;27321;50.816;6.054;2024-01-06T22:14:11;18.92;;;11.68;;
41627;SDS011;27321;50.816;6.054;2024-01-06T22:17:17;20.10;;;12.00;;
41627;SDS011;27321;50.816;6.054;2024-01-06T22:20:18;21.02;;;11.65;;
41627;SDS011;27321;50.816;6.054;2024-01-06T22:23:20;20.20;;;12.73;;
41627;SDS011;27321;50.816;6.054;2024-01-06T22:26:20;20.83;;;12.53;;
41627;SDS011;27321;50.816;6.054;2024-01-06T22:29:22;19.60;;;12.45;;
41627;SDS011;27321;50.816;6.054;2024-01-06T22:32:23;20.38;;;11.85;;
41627;SDS011;27321;50.816;6.054;2024-01-06T22:35:26;19.83;;;12.40;;
41627;SDS011;27321;50.816;6.054;2024-01-06T22:38:27;23.85;;;13.85;;
41627;SDS011;27321;50.816;6.054;2024-01-06T22:41:28;23.53;;;13.10;;
41627;SDS011;27321;50.816;6.054;2024-01-06T22:44:29;23.60;;;13.87;;
41627;SDS011;27321;50.816;6.054;2024-01-06T22:47:34;22.10;;;13.80;;
41627;SDS011;27321;50.816;6.054;2024-01-06T22:50:34;19.00;;;12.17;;
41627;SDS011;27321;50.816;6.054;2024-01-06T22:53:36;25.67;;;14.77;;
41627;SDS011;27321;50.816;6.054;2024-01-06T22:56:36;23.67;;;14.47;;
41627;SDS011;27321;50.816;6.054;2024-01-06T22:59:40;24.10;;;13.67;;
41627;SDS011;27321;50.816;6.054;2024-01-06T23:02:42;20.70;;;12.67;;
41627;SDS011;27321;50.816;6.054;2024-01-06T23:05:44;22.60;;;13.17;;
41627;SDS011;27321;50.816;6.054;2024-01-06T23:08:47;21.50;;;12.60;;
41627;SDS011;27321;50.816;6.054;2024-01-06T23:11:48;20.53;;;12.47;;
41627;SDS011;27321;50.816;6.054;2024-01-06T23:14:49;22.57;;;12.97;;
41627;SDS011;27321;50.816;6.054;2024-01-06T23:17:53;25.07;;;14.57;;
41627;SDS011;27321;50.816;6.054;2024-01-06T23:20:54;24.23;;;13.13;;
41627;SDS011;27321;50.816;6.054;2024-01-06T23:23:55;20.17;;;12.10;;
41627;SDS011;27321;50.816;6.054;2024-01-06T23:26:56;22.70;;;12.85;;
41627;SDS011;27321;50.816;6.054;2024-01-06T23:29:57;23.37;;;12.67;;
41627;SDS011;27321;50.816;6.054;2024-01-06T23:32:58;22.30;;;13.17;;
41627;SDS011;27321;50.816;6.054;2024-01-06T23:35:59;21.97;;;12.53;;
41627;SDS011;27321;50.816;6.054;2024-01-06T23:39:00;21.23;;;12.70;;
41627;SDS011;27321;50.816;6.054;2024-01-06T23:42:03;19.20;;;12.27;;
41627;SDS011;27321;50.816;6.054;2024-01-06T23:45:05;21.77;;;12.70;;
41627;SDS011;27321;50.816;6.054;2024-01-06T23:48:06;21.70;;;12.82;;
41627;SDS011;27321;50.816;6.054;2024-01-06T23:51:07;21.20;;;12.63;;
41627;SDS011;27321;50.816;6.054;2024-01-06T23:54:16;22.80;;;13.83;;
41627;SDS011;27321;50.816;6.054;2024-01-06T23:57:17;25.00;;;15.17;;
